Current Weather



TAF Data Links

METAR Data Links

Latest METAR/TAF Data


Available data for KAUS from the past 2 hours
AUSTIN, TX
Metar
KAUS 240653Z 20007KT 10SM BKN020 OVC025 27/23 A2990 RMK AO2 SLP113 T02670233 $

06:53 UTC

Wind: 200° 7kt

Visibility: 10 SM

Sky: BKN 2000 ft

Temp: 27 deg C / 80.6 deg F

Dewpoint: 23 deg C / 73.4 deg F

Pressure: 29.9 inHg

TAF
KAUS 240701Z 2407/2512 18011KT P6SM BKN015 FM241500 18013G23KT P6SM FEW030 FM241900 17015G27KT P6SM FEW030


Available data for KEDC from the past 2 hours
AUSTIN EXEC, TX
Metar
KEDC 240655Z AUTO 20005KT 10SM BKN021 OVC030 26/24 A2993 RMK AO2

06:55 UTC

Wind: 200° 5kt

Visibility: 10 SM

Sky: BKN 2100 ft

Temp: 26 deg C / 78.8 deg F

Dewpoint: 24 deg C / 75.2 deg F

Pressure: 29.93 inHg



Available data for KRYW from the past 2 hours
LAGO VISTA, TX
Metar
KRYW 240655Z AUTO 18007KT 10SM BKN024 OVC034 27/23 A2995 RMK AO2 T02700230

06:55 UTC

Wind: 180° 7kt

Visibility: 10 SM

Sky: BKN 2400 ft

Temp: 27 deg C / 80.6 deg F

Dewpoint: 23 deg C / 73.4 deg F

Pressure: 29.95 inHg